Time;durP1;ratioP1;P1;durP2;ratioP2;P2;SDS_P1;SDS_P2;PMS_P1;PMS_P2;Temp;Humidity;BMP_temperature;BMP_pressure;BME280_temperature;BME280_humidity;BME280_pressure;Samples;Min_cycle;Max_cycle;Signal;HPM_P1;HPM_P2
2023/08/04 00:00:18;;;;;;;0.30;0.30;;;16.70;99.90;;;;;;5093306;28;20426;-74
2023/08/04 00:02:44;;;;;;;0.30;0.30;;;16.70;99.90;;;;;;5093348;28;20044;-74
2023/08/04 00:05:10;;;;;;;0.30;0.30;;;16.70;99.90;;;;;;5095635;28;20076;-73
2023/08/04 00:07:37;;;;;;;0.30;0.30;;;16.70;99.90;;;;;;5096539;28;20090;-74
2023/08/04 00:10:03;;;;;;;0.30;0.30;;;16.70;99.90;;;;;;5097733;28;20051;-73
2023/08/04 00:12:29;;;;;;;1.50;0.60;;;16.70;99.90;;;;;;5097705;28;20050;-75
2023/08/04 00:14:55;;;;;;;0.30;0.30;;;16.70;99.90;;;;;;5097215;28;20055;-73
2023/08/04 00:17:21;;;;;;;0.40;0.40;;;16.70;99.90;;;;;;5097504;28;20044;-72
2023/08/04 00:19:47;;;;;;;0.30;0.30;;;16.70;99.90;;;;;;5097707;28;20052;-74
2023/08/04 00:22:12;;;;;;;0.30;0.30;;;16.70;99.90;;;;;;5095807;28;20151;-72
2023/08/04 00:24:38;;;;;;;0.30;0.30;;;16.70;99.90;;;;;;5097410;28;20035;-72
2023/08/04 00:27:04;;;;;;;0.30;0.30;;;16.70;99.90;;;;;;5097404;28;20044;-72
2023/08/04 00:29:29;;;;;;;0.30;0.30;;;16.60;99.90;;;;;;5097171;28;20070;-73
2023/08/04 00:31:55;;;;;;;0.30;0.30;;;16.60;99.90;;;;;;5097276;28;20101;-73
2023/08/04 00:34:21;;;;;;;0.30;0.30;;;16.70;99.90;;;;;;5097303;28;20505;-72
2023/08/04 00:36:47;;;;;;;0.20;0.20;;;16.60;99.90;;;;;;5097063;28;20036;-74
2023/08/04 00:39:16;;;;;;;0.30;0.30;;;16.70;99.90;;;;;;5097120;28;20491;-74
2023/08/04 00:41:42;;;;;;;0.30;0.30;;;16.70;99.90;;;;;;5097083;28;20040;-73
2023/08/04 00:44:08;;;;;;;0.20;0.20;;;16.70;99.90;;;;;;5096805;28;20472;-74
2023/08/04 00:46:35;;;;;;;0.30;0.30;;;16.70;99.90;;;;;;5097050;28;20036;-74
2023/08/04 00:49:02;;;;;;;0.35;0.35;;;16.70;99.90;;;;;;5096072;28;20166;-72
2023/08/04 00:51:30;;;;;;;0.30;0.30;;;16.60;99.90;;;;;;5096679;28;20073;-72
2023/08/04 00:53:56;;;;;;;0.30;0.30;;;16.60;99.90;;;;;;5096945;28;20036;-71
2023/08/04 00:56:22;;;;;;;0.40;0.40;;;16.70;99.90;;;;;;5096841;28;20046;-73
2023/08/04 00:58:47;;;;;;;0.40;0.40;;;16.60;99.90;;;;;;5096834;28;20368;-74
2023/08/04 01:01:13;;;;;;;0.30;0.30;;;16.60;99.90;;;;;;5096650;28;20123;-71
2023/08/04 01:03:40;;;;;;;0.30;0.30;;;16.60;99.90;;;;;;5096546;28;20122;-75
2023/08/04 01:06:59;;;;;;;0.30;0.30;;;16.60;99.90;;;;;;5096244;28;20119;-70
2023/08/04 01:09:25;;;;;;;;;;;16.60;99.90;;;;;;5014584;28;20382;-73
2023/08/04 01:14:59;;;;;;;0.40;0.30;;;16.50;99.90;;;;;;5067228;28;20480;-73
2023/08/04 01:17:26;;;;;;;0.30;0.30;;;16.40;99.90;;;;;;5096435;28;20122;-75
2023/08/04 01:19:53;;;;;;;0.30;0.30;;;16.50;99.90;;;;;;5094739;28;20048;-71
2023/08/04 01:22:20;;;;;;;0.30;0.30;;;16.40;99.90;;;;;;5095535;28;20100;-73
2023/08/04 01:24:46;;;;;;;0.30;0.30;;;16.40;99.90;;;;;;5095893;28;20047;-73
2023/08/04 01:27:15;;;;;;;0.60;0.40;;;16.30;99.90;;;;;;5096232;28;20036;-72
2023/08/04 01:29:44;;;;;;;0.30;0.30;;;16.30;99.90;;;;;;5095910;28;20491;-70
2023/08/04 01:32:10;;;;;;;0.30;0.30;;;16.30;99.90;;;;;;5096023;28;20040;-73
2023/08/04 01:34:36;;;;;;;0.30;0.30;;;16.30;99.90;;;;;;5096095;28;20123;-73
2023/08/04 01:37:02;;;;;;;0.50;0.43;;;16.30;99.90;;;;;;5094901;28;20452;-74
2023/08/04 01:39:27;;;;;;;0.30;0.30;;;16.20;99.90;;;;;;5095598;28;20371;-72
2023/08/04 01:41:53;;;;;;;0.30;0.30;;;16.10;99.90;;;;;;5095785;28;20075;-72
2023/08/04 01:44:18;;;;;;;0.33;0.30;;;16.10;99.90;;;;;;5095949;28;20153;-71
2023/08/04 01:46:44;;;;;;;0.20;0.20;;;16.00;99.90;;;;;;5095899;28;20048;-75
2023/08/04 01:49:10;;;;;;;0.30;0.30;;;16.00;99.90;;;;;;5095879;28;20510;-72
2023/08/04 01:51:36;;;;;;;0.30;0.30;;;15.90;99.90;;;;;;5095708;28;20361;-73
2023/08/04 01:54:02;;;;;;;0.30;0.30;;;15.90;99.90;;;;;;5095782;28;20093;-74
2023/08/04 01:56:27;;;;;;;0.30;0.30;;;15.80;99.90;;;;;;5095519;28;20040;-72
2023/08/04 01:58:53;;;;;;;0.30;0.30;;;15.80;99.90;;;;;;5095762;28;20297;-72
2023/08/04 02:01:20;;;;;;;0.30;0.30;;;15.70;99.90;;;;;;5095617;28;20055;-71
2023/08/04 02:03:45;;;;;;;0.40;0.40;;;15.70;99.90;;;;;;5095439;28;20051;-71
2023/08/04 02:06:11;;;;;;;1.27;0.30;;;15.70;99.90;;;;;;5095361;28;20028;-74
2023/08/04 02:08:37;;;;;;;0.30;0.30;;;15.60;99.90;;;;;;5095210;28;20069;-71
2023/08/04 02:11:02;;;;;;;0.40;0.40;;;15.60;99.90;;;;;;5095140;28;20130;-74
2023/08/04 02:13:28;;;;;;;0.30;0.30;;;15.50;99.90;;;;;;5095359;28;20387;-72
2023/08/04 02:15:54;;;;;;;0.30;0.30;;;15.50;99.90;;;;;;5095360;28;20043;-73
2023/08/04 02:18:19;;;;;;;0.30;0.30;;;15.50;99.90;;;;;;5095241;28;20418;-72
2023/08/04 02:20:45;;;;;;;0.30;0.30;;;15.50;99.90;;;;;;5095307;28;20047;-74
2023/08/04 02:23:10;;;;;;;0.30;0.30;;;15.50;99.90;;;;;;5095190;28;20126;-72
2023/08/04 02:25:36;;;;;;;0.43;0.43;;;15.40;99.90;;;;;;5094838;28;20468;-71
2023/08/04 02:28:02;;;;;;;0.33;0.33;;;15.40;99.90;;;;;;5094478;28;20051;-73
2023/08/04 02:30:28;;;;;;;0.30;0.30;;;15.40;99.90;;;;;;5095177;28;20526;-72
2023/08/04 02:32:53;;;;;;;0.30;0.30;;;15.40;99.90;;;;;;5095007;28;20123;-75
2023/08/04 02:35:19;;;;;;;0.50;0.50;;;15.40;99.90;;;;;;5094619;28;20468;-72
2023/08/04 02:37:46;;;;;;;0.40;0.40;;;15.40;99.90;;;;;;5094921;28;20044;-73
2023/08/04 02:40:12;;;;;;;0.50;0.50;;;15.40;99.90;;;;;;5094491;28;20031;-73
2023/08/04 02:42:37;;;;;;;0.30;0.30;;;15.40;99.90;;;;;;5094814;28;20357;-71
2023/08/04 02:45:04;;;;;;;0.30;0.30;;;15.40;99.90;;;;;;5094983;28;20043;-72
2023/08/04 02:47:30;;;;;;;0.30;0.30;;;15.40;99.90;;;;;;5093455;28;20051;-74
2023/08/04 02:49:55;;;;;;;0.40;0.40;;;15.40;99.90;;;;;;5094697;28;20039;-73
2023/08/04 02:52:21;;;;;;;0.40;0.40;;;15.40;99.90;;;;;;5094584;28;20075;-74
2023/08/04 02:54:47;;;;;;;0.43;0.43;;;15.50;99.90;;;;;;5094239;28;20101;-74
2023/08/04 02:57:12;;;;;;;0.30;0.30;;;15.50;99.90;;;;;;5094184;28;20127;-75
2023/08/04 02:59:38;;;;;;;1.30;0.37;;;15.50;99.90;;;;;;5094520;28;20035;-71
2023/08/04 03:02:04;;;;;;;0.30;0.30;;;15.40;99.90;;;;;;5094316;28;20081;-74
2023/08/04 03:04:29;;;;;;;0.30;0.30;;;15.50;99.90;;;;;;5094991;28;20466;-73
2023/08/04 03:06:55;;;;;;;0.30;0.30;;;15.40;99.90;;;;;;5094418;28;20032;-73
2023/08/04 03:09:20;;;;;;;0.30;0.30;;;15.50;99.90;;;;;;5094075;28;20491;-74
2023/08/04 03:11:46;;;;;;;0.30;0.30;;;15.50;99.90;;;;;;5094261;28;20036;-73
2023/08/04 03:14:12;;;;;;;0.30;0.30;;;15.50;99.90;;;;;;5094242;28;20075;-73
2023/08/04 03:16:37;;;;;;;0.40;0.40;;;15.50;99.90;;;;;;5094209;28;20071;-74
2023/08/04 03:19:03;;;;;;;0.30;0.30;;;15.50;99.90;;;;;;5094100;28;20468;-72
2023/08/04 03:21:28;;;;;;;0.30;0.30;;;15.50;99.90;;;;;;5094054;28;20051;-71
2023/08/04 03:23:54;;;;;;;0.30;0.30;;;15.50;99.90;;;;;;5093524;28;20039;-74
2023/08/04 03:26:20;;;;;;;0.37;0.37;;;15.60;99.90;;;;;;5093986;28;20043;-71
2023/08/04 03:28:45;;;;;;;0.30;0.30;;;15.50;99.90;;;;;;5093952;28;20118;-73
2023/08/04 03:31:11;;;;;;;0.30;0.30;;;15.60;99.90;;;;;;5093985;28;20169;-73
2023/08/04 03:33:37;;;;;;;0.30;0.30;;;15.60;99.90;;;;;;5093987;28;20039;-72
2023/08/04 03:36:02;;;;;;;0.30;0.30;;;15.50;99.90;;;;;;5093898;28;20043;-73
2023/08/04 03:38:28;;;;;;;0.30;0.30;;;15.50;99.90;;;;;;5092983;28;20040;-73
2023/08/04 03:40:54;;;;;;;0.30;0.30;;;15.50;99.90;;;;;;5092778;28;20035;-72
2023/08/04 03:43:19;;;;;;;0.30;0.30;;;15.50;99.90;;;;;;5093792;28;20043;-73
2023/08/04 03:45:45;;;;;;;0.30;0.30;;;15.40;99.90;;;;;;5093651;28;20108;-70
2023/08/04 03:48:10;;;;;;;0.30;0.30;;;15.50;99.90;;;;;;5093726;28;20076;-73
2023/08/04 03:50:36;;;;;;;0.30;0.30;;;15.40;99.90;;;;;;5093406;28;20075;-72
2023/08/04 03:53:02;;;;;;;0.60;0.60;;;15.40;99.90;;;;;;5093466;28;20044;-73
2023/08/04 03:55:27;;;;;;;0.30;0.30;;;15.50;99.90;;;;;;5093483;28;20367;-74
2023/08/04 03:57:53;;;;;;;0.30;0.30;;;15.50;99.90;;;;;;5093550;28;20032;-74
2023/08/04 04:00:19;;;;;;;0.40;0.40;;;15.50;99.90;;;;;;5093459;28;20101;-71
2023/08/04 04:02:44;;;;;;;0.40;0.40;;;15.50;99.90;;;;;;5093639;28;20039;-73
2023/08/04 04:05:10;;;;;;;0.30;0.30;;;15.50;99.90;;;;;;5093349;28;20082;-71
2023/08/04 04:07:36;;;;;;;0.30;0.30;;;15.40;99.90;;;;;;5093126;28;20036;-72
2023/08/04 04:10:02;;;;;;;0.30;0.30;;;15.50;99.90;;;;;;5093351;28;20148;-73
2023/08/04 04:12:28;;;;;;;0.30;0.30;;;15.50;99.90;;;;;;5093411;28;20483;-72
2023/08/04 04:14:53;;;;;;;0.50;0.50;;;15.40;99.90;;;;;;5093380;28;20036;-72
2023/08/04 04:17:19;;;;;;;0.40;0.40;;;15.40;99.90;;;;;;5093244;28;20028;-72
2023/08/04 04:19:45;;;;;;;0.38;0.38;;;15.40;99.90;;;;;;5093367;28;20044;-73
2023/08/04 04:22:11;;;;;;;0.20;0.20;;;15.40;99.90;;;;;;5092983;28;20040;-72
2023/08/04 04:24:36;;;;;;;0.30;0.30;;;15.30;99.90;;;;;;5093199;28;20035;-70
2023/08/04 04:27:02;;;;;;;0.30;0.30;;;15.40;99.90;;;;;;5093415;28;20044;-71
2023/08/04 04:29:28;;;;;;;0.30;0.30;;;15.40;99.90;;;;;;5093415;28;20028;-72
2023/08/04 04:31:54;;;;;;;0.30;0.30;;;15.40;99.90;;;;;;5093171;28;20075;-74
2023/08/04 04:34:19;;;;;;;0.30;0.30;;;15.40;99.90;;;;;;5093237;28;20040;-74
2023/08/04 04:36:45;;;;;;;0.20;0.20;;;15.50;99.90;;;;;;5093301;28;20040;-72
2023/08/04 04:39:12;;;;;;;0.40;0.40;;;15.40;99.90;;;;;;5092912;28;20541;-72
2023/08/04 04:41:38;;;;;;;;;;;15.40;99.90;;;;;;5093663;28;20039;-74
2023/08/04 04:44:04;;;;;;;0.40;0.40;;;15.40;99.90;;;;;;5093143;28;19916;-73
2023/08/04 04:46:30;;;;;;;0.30;0.30;;;15.50;99.90;;;;;;5093115;28;20127;-72
2023/08/04 04:48:56;;;;;;;0.50;0.50;;;15.50;99.90;;;;;;5093017;28;20032;-74
2023/08/04 04:51:22;;;;;;;0.30;0.30;;;15.50;99.90;;;;;;5095067;28;20048;-73
2023/08/04 04:53:48;;;;;;;0.30;0.30;;;15.50;99.90;;;;;;5096982;28;20055;-70
2023/08/04 04:56:13;;;;;;;0.40;0.40;;;15.50;99.90;;;;;;5096847;28;20052;-71
2023/08/04 04:58:40;;;;;;;0.40;0.40;;;15.50;99.90;;;;;;5096818;28;20460;-73
2023/08/04 05:01:08;;;;;;;0.30;0.30;;;15.60;99.90;;;;;;5096609;28;20073;-72
2023/08/04 05:03:33;;;;;;;0.43;0.43;;;15.60;99.90;;;;;;5096351;28;20028;-72
2023/08/04 05:05:59;;;;;;;0.30;0.30;;;15.50;99.90;;;;;;5095397;28;20054;-70
2023/08/04 05:08:25;;;;;;;0.30;0.30;;;15.60;99.90;;;;;;5096702;28;20125;-73
2023/08/04 05:10:51;;;;;;;0.30;0.30;;;15.60;99.90;;;;;;5096121;28;20476;-71
2023/08/04 05:13:17;;;;;;;0.40;0.40;;;15.60;99.90;;;;;;5096523;28;20035;-71
2023/08/04 05:15:42;;;;;;;0.40;0.40;;;15.70;99.90;;;;;;5096464;28;20126;-74
2023/08/04 05:18:08;;;;;;;0.20;0.20;;;15.70;99.90;;;;;;5096210;28;20097;-72
2023/08/04 05:20:34;;;;;;;0.30;0.30;;;15.70;99.90;;;;;;5096169;28;20079;-70
2023/08/04 05:22:59;;;;;;;0.30;0.30;;;15.70;99.90;;;;;;5096209;28;20040;-71
2023/08/04 05:25:25;;;;;;;0.30;0.30;;;15.70;99.90;;;;;;5096197;28;20058;-70
2023/08/04 05:27:50;;;;;;;0.30;0.30;;;15.80;99.90;;;;;;5096764;28;20421;-76
2023/08/04 05:30:16;;;;;;;0.40;0.40;;;15.80;99.90;;;;;;5095083;28;20040;-69
2023/08/04 05:32:42;;;;;;;0.30;0.30;;;15.80;99.90;;;;;;5096039;28;20475;-71
2023/08/04 05:35:09;;;;;;;0.30;0.30;;;15.80;99.90;;;;;;5096094;28;20044;-69
2023/08/04 05:37:35;;;;;;;0.30;0.30;;;15.90;99.90;;;;;;5096064;28;20048;-70
2023/08/04 05:40:01;;;;;;;0.40;0.40;;;15.90;99.90;;;;;;5095729;28;20084;-74
2023/08/04 05:42:27;;;;;;;0.30;0.30;;;15.90;99.90;;;;;;5095929;28;20040;-72
2023/08/04 05:44:52;;;;;;;0.30;0.30;;;15.90;99.90;;;;;;5095945;28;20127;-71
2023/08/04 05:47:19;;;;;;;0.30;0.30;;;16.00;99.90;;;;;;5095580;28;20039;-72
2023/08/04 05:49:47;;;;;;;0.30;0.30;;;16.00;99.90;;;;;;5095659;28;20464;-73
2023/08/04 05:52:13;;;;;;;0.30;0.30;;;16.00;99.90;;;;;;5095788;28;20068;-69
2023/08/04 05:54:38;;;;;;;0.40;0.40;;;16.00;99.90;;;;;;5095582;28;20114;-72
2023/08/04 05:57:04;;;;;;;0.53;0.50;;;16.00;99.90;;;;;;5095724;28;20486;-72
2023/08/04 05:59:30;;;;;;;0.30;0.30;;;16.00;99.90;;;;;;5094252;28;20094;-74
2023/08/04 06:01:56;;;;;;;0.30;0.30;;;16.00;99.90;;;;;;5094522;28;20040;-73
2023/08/04 06:04:21;;;;;;;0.33;0.33;;;16.10;99.90;;;;;;5095514;28;20049;-70
2023/08/04 06:06:47;;;;;;;0.30;0.30;;;16.10;99.90;;;;;;5095288;28;20047;-73
2023/08/04 06:09:12;;;;;;;0.30;0.30;;;16.10;99.90;;;;;;5095383;28;20051;-71
2023/08/04 06:11:38;;;;;;;0.30;0.30;;;16.10;99.90;;;;;;5095560;28;20036;-73
2023/08/04 06:14:04;;;;;;;0.27;0.27;;;16.00;99.90;;;;;;5095455;28;20032;-73
2023/08/04 06:16:30;;;;;;;0.30;0.30;;;16.10;99.90;;;;;;5095291;28;20044;-77
2023/08/04 06:18:56;;;;;;;0.30;0.30;;;16.10;99.90;;;;;;5095052;28;20055;-74
2023/08/04 06:21:21;;;;;;;0.43;0.43;;;16.10;99.90;;;;;;5095187;28;20464;-73
2023/08/04 06:23:47;;;;;;;0.30;0.30;;;16.20;99.90;;;;;;5094795;28;20376;-76
2023/08/04 06:26:13;;;;;;;0.27;0.27;;;16.20;99.90;;;;;;5094843;28;20032;-73
2023/08/04 06:28:40;;;;;;;0.30;0.30;;;16.20;99.90;;;;;;5095204;28;20052;-75
2023/08/04 06:31:06;;;;;;;0.30;0.30;;;16.30;99.90;;;;;;5095250;28;20441;-72
2023/08/04 06:33:31;;;;;;;0.47;0.47;;;16.30;99.90;;;;;;5094870;28;20032;-71
2023/08/04 06:35:57;;;;;;;0.30;0.30;;;16.30;99.90;;;;;;5094745;28;20501;-71
2023/08/04 06:38:23;;;;;;;0.30;0.30;;;16.40;99.90;;;;;;5094506;28;20068;-71
2023/08/04 06:40:49;;;;;;;0.40;0.40;;;16.40;99.90;;;;;;5094826;28;20123;-74
2023/08/04 06:43:15;;;;;;;0.30;0.30;;;16.50;99.90;;;;;;5094888;28;20526;-72
2023/08/04 06:45:40;;;;;;;0.40;0.40;;;16.50;99.90;;;;;;5094628;28;20036;-72
2023/08/04 06:48:06;;;;;;;0.30;0.30;;;16.50;99.90;;;;;;5094690;28;20036;-70
2023/08/04 06:50:31;;;;;;;0.30;0.30;;;16.60;99.90;;;;;;5094765;28;20357;-70
2023/08/04 06:52:57;;;;;;;0.30;0.30;;;16.70;99.90;;;;;;5094273;28;20089;-70
2023/08/04 06:55:23;;;;;;;0.30;0.30;;;16.80;99.90;;;;;;5094547;28;20032;-70
2023/08/04 06:57:48;;;;;;;0.30;0.30;;;16.90;99.90;;;;;;5094724;28;20044;-71
2023/08/04 07:00:14;;;;;;;0.30;0.30;;;17.00;99.90;;;;;;5094365;28;20078;-71
2023/08/04 07:02:42;;;;;;;0.30;0.30;;;17.00;99.90;;;;;;5094548;28;20040;-74
2023/08/04 07:05:07;;;;;;;0.25;0.25;;;17.10;99.90;;;;;;5094454;28;20036;-73
2023/08/04 07:07:33;;;;;;;0.30;0.30;;;17.10;99.90;;;;;;5094483;28;20080;-74
2023/08/04 07:09:59;;;;;;;0.40;0.40;;;17.20;99.90;;;;;;5094383;28;20525;-75
2023/08/04 07:12:24;;;;;;;0.30;0.30;;;17.30;99.90;;;;;;5094289;28;20532;-73
2023/08/04 07:14:50;;;;;;;0.27;0.27;;;17.30;99.90;;;;;;5092824;28;20084;-74
2023/08/04 07:17:15;;;;;;;0.30;0.30;;;17.30;99.90;;;;;;5094252;28;20099;-73
2023/08/04 07:19:41;;;;;;;0.30;0.30;;;17.40;99.90;;;;;;5093664;28;20055;-73
2023/08/04 07:22:07;;;;;;;0.30;0.30;;;17.40;99.90;;;;;;5094231;28;20336;-73
2023/08/04 07:24:32;;;;;;;0.30;0.30;;;17.50;99.90;;;;;;5092647;28;20040;-74
2023/08/04 07:26:58;;;;;;;0.40;0.40;;;17.50;99.90;;;;;;5094164;28;20414;-74
2023/08/04 07:29:23;;;;;;;0.30;0.30;;;17.50;99.90;;;;;;5093811;28;20079;-74
2023/08/04 07:31:49;;;;;;;0.30;0.30;;;17.60;99.90;;;;;;5094095;28;20085;-72
2023/08/04 07:34:15;;;;;;;0.30;0.30;;;17.70;99.90;;;;;;5093860;28;20040;-73
2023/08/04 07:36:40;;;;;;;0.30;0.30;;;17.70;99.90;;;;;;5093959;28;20089;-73
2023/08/04 07:39:06;;;;;;;0.40;0.40;;;17.70;99.90;;;;;;5093802;28;20349;-72
2023/08/04 07:41:32;;;;;;;0.30;0.30;;;17.70;99.90;;;;;;5093914;28;20036;-71
2023/08/04 07:43:57;;;;;;;0.30;0.30;;;17.80;99.90;;;;;;5093774;28;20043;-74
2023/08/04 07:46:25;;;;;;;0.33;0.33;;;17.80;99.90;;;;;;5093916;28;20487;-73
2023/08/04 07:48:51;;;;;;;0.30;0.30;;;17.80;99.90;;;;;;5092441;28;20368;-76
2023/08/04 07:51:17;;;;;;;0.30;0.30;;;17.80;99.90;;;;;;5093799;28;20176;-75
2023/08/04 07:53:43;;;;;;;0.30;0.30;;;18.00;99.90;;;;;;5093563;28;20072;-74
2023/08/04 07:56:09;;;;;;;0.20;0.20;;;18.00;99.90;;;;;;5093815;28;20122;-73
2023/08/04 07:58:35;;;;;;;0.30;0.30;;;18.10;99.90;;;;;;5093364;28;20040;-74
2023/08/04 08:01:03;;;;;;;0.30;0.30;;;18.30;99.90;;;;;;5093352;28;20072;-73
2023/08/04 08:03:29;;;;;;;0.30;0.30;;;18.40;99.90;;;;;;5093640;28;20040;-73
2023/08/04 08:05:55;;;;;;;0.38;0.38;;;18.40;99.90;;;;;;5093518;28;20043;-73
2023/08/04 08:08:21;;;;;;;0.30;0.30;;;18.50;99.90;;;;;;5093277;28;20476;-72
2023/08/04 08:10:46;;;;;;;0.30;0.30;;;18.70;99.90;;;;;;5093557;28;20368;-72
2023/08/04 08:13:12;;;;;;;0.30;0.30;;;18.70;99.90;;;;;;5093287;28;20048;-72
2023/08/04 08:15:38;;;;;;;0.30;0.30;;;18.80;99.90;;;;;;5093562;28;20126;-72
2023/08/04 08:18:03;;;;;;;0.30;0.30;;;18.90;99.90;;;;;;5093109;28;20067;-73
2023/08/04 08:20:29;;;;;;;0.30;0.30;;;18.90;99.90;;;;;;5093584;28;20040;-78
2023/08/04 08:22:56;;;;;;;0.30;0.30;;;19.00;99.90;;;;;;5093080;28;20376;-78
2023/08/04 08:25:22;;;;;;;0.35;0.32;;;19.10;99.90;;;;;;5094150;28;20120;-76
2023/08/04 08:27:48;;;;;;;0.20;0.20;;;19.20;99.90;;;;;;5097340;28;20477;-77
2023/08/04 08:30:13;;;;;;;0.20;0.20;;;19.30;99.90;;;;;;5096187;28;20039;-76
2023/08/04 08:32:39;;;;;;;0.30;0.30;;;19.50;99.90;;;;;;5097385;28;20380;-74
2023/08/04 08:35:05;;;;;;;0.30;0.30;;;19.50;99.90;;;;;;5097470;28;20028;-77
2023/08/04 08:37:31;;;;;;;1.65;1.05;;;19.60;99.90;;;;;;5097213;28;20040;-77
2023/08/04 08:39:56;;;;;;;0.30;0.30;;;19.60;99.90;;;;;;5097157;28;20044;-76
2023/08/04 08:42:22;;;;;;;0.30;0.30;;;19.60;99.90;;;;;;5097882;28;20048;-72
2023/08/04 08:44:49;;;;;;;0.30;0.30;;;19.60;99.90;;;;;;5098880;28;20472;-77
2023/08/04 08:47:16;;;;;;;0.20;0.20;;;19.70;99.90;;;;;;5099436;28;20051;-75
2023/08/04 08:49:46;;;;;;;0.30;0.30;;;19.90;99.90;;;;;;5096818;28;20047;-76
2023/08/04 08:52:11;;;;;;;0.20;0.20;;;20.00;99.90;;;;;;5097205;28;20043;-74
2023/08/04 08:54:37;;;;;;;0.30;0.30;;;20.00;99.90;;;;;;5096976;28;20044;-74
2023/08/04 08:57:05;;;;;;;0.30;0.30;;;20.10;99.90;;;;;;5096696;28;20047;-76
2023/08/04 08:59:32;;;;;;;0.30;0.30;;;20.10;99.90;;;;;;5096850;28;20357;-75
2023/08/04 09:01:58;;;;;;;0.20;0.20;;;20.20;99.90;;;;;;5096641;28;20414;-76
2023/08/04 09:04:24;;;;;;;0.45;0.45;;;20.20;99.90;;;;;;5096850;28;20040;-76
2023/08/04 09:06:50;;;;;;;0.30;0.30;;;20.30;99.90;;;;;;5096103;28;20048;-75
2023/08/04 09:09:16;;;;;;;0.53;0.40;;;20.30;99.90;;;;;;5096599;28;20040;-74
2023/08/04 09:11:42;;;;;;;0.20;0.20;;;20.30;99.90;;;;;;5096359;28;20456;-72
2023/08/04 09:14:08;;;;;;;0.30;0.30;;;20.30;99.90;;;;;;5096463;28;20079;-75
2023/08/04 09:16:39;;;;;;;0.20;0.20;;;20.40;99.90;;;;;;5096470;28;20036;-75
2023/08/04 09:19:06;;;;;;;1.05;0.40;;;20.40;99.90;;;;;;5096412;28;20078;-75
2023/08/04 09:21:36;;;;;;;0.20;0.20;;;20.50;99.90;;;;;;5096156;28;20083;-75
2023/08/04 09:24:03;;;;;;;0.20;0.20;;;20.60;99.90;;;;;;5096380;28;20055;-75
2023/08/04 09:26:46;;;;;;;0.20;0.20;;;20.80;99.90;;;;;;5095998;28;20115;-75
2023/08/04 09:29:14;;;;;;;0.20;0.20;;;20.90;99.90;;;;;;5096511;28;20044;-74
2023/08/04 09:31:40;;;;;;;;;;;20.90;99.90;;;;;;5096646;28;20377;-75
2023/08/04 09:34:07;;;;;;;0.30;0.30;;;20.80;99.90;;;;;;5095708;28;19961;-75
2023/08/04 09:36:44;;;;;;;0.40;0.40;;;20.70;99.90;;;;;;5095789;28;20062;-76
2023/08/04 09:39:10;;;;;;;0.40;0.40;;;20.50;99.90;;;;;;5096022;28;20044;-77
2023/08/04 09:41:44;;;;;;;0.20;0.20;;;20.30;99.90;;;;;;5095185;28;20464;-76
2023/08/04 09:44:10;;;;;;;0.20;0.20;;;20.10;99.90;;;;;;5096042;28;20333;-74
2023/08/04 09:46:40;;;;;;;0.30;0.30;;;20.00;99.90;;;;;;5095311;28;20043;-75
2023/08/04 09:49:07;;;;;;;0.30;0.30;;;19.80;99.90;;;;;;5095868;28;20054;-75
2023/08/04 09:51:40;;;;;;;0.30;0.30;;;19.70;99.90;;;;;;5095638;28;20076;-76
2023/08/04 09:54:05;;;;;;;0.30;0.30;;;19.50;99.90;;;;;;5095724;28;20375;-75
2023/08/04 09:56:33;;;;;;;0.20;0.20;;;19.20;99.90;;;;;;5095483;28;20039;-76
2023/08/04 09:58:59;;;;;;;0.43;0.32;;;19.10;99.90;;;;;;5095480;28;20048;-77
2023/08/04 10:01:25;;;;;;;0.30;0.30;;;18.90;99.90;;;;;;5095541;28;20097;-74
2023/08/04 10:03:54;;;;;;;0.20;0.20;;;18.80;99.90;;;;;;5095352;28;20609;-73
2023/08/04 10:06:20;;;;;;;0.20;0.20;;;18.70;99.90;;;;;;5095455;28;20043;-76
2023/08/04 10:08:48;;;;;;;0.20;0.20;;;18.60;99.90;;;;;;5095472;28;20040;-76
2023/08/04 10:11:14;;;;;;;0.20;0.20;;;18.50;99.90;;;;;;5095517;28;20424;-75
2023/08/04 10:13:42;;;;;;;0.30;0.30;;;18.60;99.90;;;;;;5093990;28;20177;-75
2023/08/04 10:16:10;;;;;;;0.30;0.30;;;18.70;99.90;;;;;;5095370;28;20102;-78
2023/08/04 10:18:45;;;;;;;0.30;0.30;;;18.80;99.90;;;;;;5095361;28;20083;-71
2023/08/04 10:21:11;;;;;;;0.20;0.20;;;18.90;99.90;;;;;;5095243;28;20043;-84
2023/08/04 10:23:36;;;;;;;0.20;0.20;;;18.90;99.90;;;;;;5094863;28;20032;-72
2023/08/04 10:26:02;;;;;;;0.20;0.20;;;19.00;99.90;;;;;;5095007;28;20070;-72
2023/08/04 10:28:31;;;;;;;0.23;0.23;;;19.00;99.90;;;;;;5095035;28;20055;-74
2023/08/04 10:31:05;;;;;;;0.20;0.20;;;19.10;99.90;;;;;;5093946;28;20463;-74
2023/08/04 10:33:31;;;;;;;0.20;0.20;;;19.10;99.90;;;;;;5094860;28;20383;-73
2023/08/04 10:36:17;;;;;;;0.30;0.30;;;19.20;99.90;;;;;;5094850;28;20051;-73
2023/08/04 10:38:47;;;;;;;0.20;0.20;;;19.20;99.90;;;;;;5094461;28;20395;-74
2023/08/04 10:41:13;;;;;;;0.30;0.30;;;19.20;99.90;;;;;;5094787;28;20169;-71
2023/08/04 10:43:39;;;;;;;0.28;0.28;;;19.30;99.90;;;;;;5095023;28;20035;-75
2023/08/04 10:46:13;;;;;;;0.30;0.30;;;19.40;99.90;;;;;;5094786;28;20379;-73
2023/08/04 10:48:40;;;;;;;0.30;0.30;;;19.40;99.90;;;;;;5094040;28;20500;-72
2023/08/04 10:51:10;;;;;;;0.20;0.20;;;19.60;99.90;;;;;;5094671;28;20048;-73
2023/08/04 10:53:36;;;;;;;0.47;0.40;;;19.70;99.90;;;;;;5094349;28;20044;-74
2023/08/04 10:56:06;;;;;;;0.27;0.27;;;19.90;99.90;;;;;;5094751;28;20372;-72
2023/08/04 10:58:31;;;;;;;0.20;0.20;;;20.10;99.90;;;;;;5094508;28;20075;-73
2023/08/04 11:00:57;;;;;;;0.20;0.20;;;20.20;99.90;;;;;;5094542;28;20071;-73
2023/08/04 11:03:26;;;;;;;0.60;0.60;;;20.40;99.90;;;;;;5094490;28;20524;-73
2023/08/04 11:05:52;;;;;;;0.20;0.20;;;20.50;99.90;;;;;;5094083;28;20048;-73
2023/08/04 11:08:19;;;;;;;1.05;0.35;;;20.70;99.90;;;;;;5094353;28;20046;-73
2023/08/04 11:10:53;;;;;;;0.30;0.30;;;21.00;99.90;;;;;;5094335;28;20036;-73
2023/08/04 11:13:20;;;;;;;0.30;0.30;;;21.20;99.90;;;;;;5094405;28;20047;-72
2023/08/04 11:15:47;;;;;;;0.43;0.30;;;21.40;99.90;;;;;;5094142;28;20066;-72
2023/08/04 11:18:13;;;;;;;;;;;21.50;99.90;;;;;;5094283;28;20050;-72
2023/08/04 11:20:42;;;;;;;0.30;0.30;;;21.50;99.90;;;;;;5093836;28;19920;-72
2023/08/04 11:23:10;;;;;;;0.20;0.20;;;21.50;99.90;;;;;;5094320;28;20039;-74
2023/08/04 11:25:39;;;;;;;0.30;0.30;;;21.40;99.90;;;;;;5094011;28;20490;-74
2023/08/04 11:28:06;;;;;;;0.30;0.30;;;21.00;99.90;;;;;;5094069;28;20050;-75
2023/08/04 11:30:32;;;;;;;;;;;20.80;99.90;;;;;;5094710;28;20075;-76
2023/08/04 11:32:58;;;;;;;0.30;0.30;;;20.70;99.90;;;;;;5094060;28;19970;-76
2023/08/04 11:35:27;;;;;;;0.30;0.30;;;20.60;99.90;;;;;;5093910;28;20036;-74
2023/08/04 11:37:53;;;;;;;0.30;0.30;;;20.50;99.90;;;;;;5093882;28;20043;-74
2023/08/04 11:40:23;;;;;;;0.33;0.33;;;20.50;99.90;;;;;;5093994;28;20036;-74
2023/08/04 11:42:50;;;;;;;0.20;0.20;;;20.50;99.90;;;;;;5093759;28;20071;-74
2023/08/04 11:45:16;;;;;;;;;;;20.50;99.90;;;;;;5094041;28;20534;-74
2023/08/04 11:47:41;;;;;;;0.20;0.20;;;20.60;99.90;;;;;;5093812;28;19974;-74
2023/08/04 11:50:08;;;;;;;0.30;0.30;;;20.70;99.90;;;;;;5093601;28;20361;-74
2023/08/04 11:52:37;;;;;;;0.20;0.20;;;20.70;99.90;;;;;;5093729;28;20040;-74
2023/08/04 11:55:04;;;;;;;0.30;0.30;;;20.90;99.90;;;;;;5093763;28;20040;-74
2023/08/04 11:57:30;;;;;;;0.20;0.20;;;20.90;99.90;;;;;;5093519;28;20055;-74
2023/08/04 11:59:57;;;;;;;0.30;0.30;;;21.10;99.90;;;;;;5092610;28;20044;-74
2023/08/04 12:02:23;;;;;;;0.35;0.30;;;21.30;99.90;;;;;;5093524;28;20106;-76
2023/08/04 12:05:10;;;;;;;0.20;0.20;;;21.40;99.90;;;;;;5093510;28;20131;-76
2023/08/04 12:07:36;;;;;;;0.20;0.20;;;21.40;99.90;;;;;;5093577;28;20481;-77
2023/08/04 12:10:02;;;;;;;0.30;0.30;;;21.30;99.90;;;;;;5093565;28;20131;-78
2023/08/04 12:12:35;;;;;;;0.20;0.20;;;21.20;99.90;;;;;;5093823;28;20123;-76
2023/08/04 12:15:01;;;;;;;0.30;0.30;;;21.00;99.90;;;;;;5093247;28;20044;-78
2023/08/04 12:17:41;;;;;;;0.20;0.20;;;20.80;99.90;;;;;;5093456;28;20043;-79
2023/08/04 12:20:08;;;;;;;0.30;0.30;;;20.50;99.90;;;;;;5093258;28;20051;-77
2023/08/04 12:22:38;;;;;;;0.20;0.20;;;20.40;99.90;;;;;;5093352;28;20044;-78
2023/08/04 12:25:05;;;;;;;0.20;0.20;;;20.20;99.90;;;;;;5093286;28;20040;-77
2023/08/04 12:27:31;;;;;;;0.28;0.28;;;20.00;99.90;;;;;;5093328;28;20047;-78
2023/08/04 12:29:57;;;;;;;0.20;0.20;;;19.90;99.90;;;;;;5093383;28;20104;-76
2023/08/04 12:32:23;;;;;;;0.20;0.20;;;19.90;99.90;;;;;;5093454;28;20527;-80
2023/08/04 12:34:48;;;;;;;0.30;0.30;;;20.00;99.90;;;;;;5093187;28;20043;-79
2023/08/04 12:37:14;;;;;;;0.20;0.20;;;20.00;99.90;;;;;;5093102;28;20048;-79
2023/08/04 12:39:41;;;;;;;0.20;0.20;;;20.10;99.90;;;;;;5093239;28;20476;-79
2023/08/04 12:42:06;;;;;;;0.55;0.47;;;20.20;99.90;;;;;;5091578;28;20485;-77
2023/08/04 12:44:32;;;;;;;0.20;0.20;;;20.20;99.90;;;;;;5093276;28;20083;-78
2023/08/04 12:46:58;;;;;;;0.20;0.20;;;20.30;99.90;;;;;;5093205;28;20047;-78